Key West, FL (33040)

9:43 AM EDT on October 23, 2014 (GMT -0400)
Big Coppitt Key Gulfside | Change Station
CLOSE
Current Station
Personal Weather Station
Location: Key West, FL
Elevation: 31 ft
Nearby Weather Stations

Elev 31 ft 24.60 °N, 81.67 °W | Updated 9 minutes ago

Rain
Rain
76.8 °F
Feels Like 78 °F
N
6.8
Wind Variable Wind from East

Today
High -- | Low -- °F
--% Chance of Precip.
Yesterday
High -- | Low -- °F
Precip. -- in
7:28 AM 6:52 PM
Waning Crescent, 0% visible
Pressure 29.88 in
Visibility 10.0 miles
Clouds Scattered Clouds 1400 ft
Mostly Cloudy 2700 ft
Overcast 5000 ft
Heat Index 78 °F
Dew Point 75 °F
Humidity 93%
Rainfall 0.07 in
Snow Depth Not available.
UV 1 out of 12
Pollen .50 out of 12
Air Quality Not available.
Flu Activity Local Activity
SPECI KNQX 231315Z 05006KT 10SM SCT014 BKN027 OVC050 24/23 A2988 RMK AO2 RAB07E15 T2 SET P0002 T02440233 $

More Conditions Fewer Conditions

Pressure 29.88 in
Visibility 10.0 miles
Clouds Scattered Clouds 1400 ft
Mostly Cloudy 2700 ft
Overcast 5000 ft
Heat Index 78 °F
Dew Point 75 °F
Humidity 93%
Rainfall 0.07 in
Snow Depth Not available.
UV 1 out of 12
Pollen .50 out of 12
Air Quality Not available.
Flu Activity Local Activity
SPECI KNQX 231315Z 05006KT 10SM SCT014 BKN027 OVC050 24/23 A2988 RMK AO2 RAB07E15 T2 SET P0002 T02440233 $

More Conditions Fewer Conditions

Nowcast | as of 9:17 am EDT on October 23, 2014

Through 1100 am...periods of light to moderate rain will continue over the island chain and surrounding near and offshore waters. A few embedded showers and a thunderstorm or two will be found...mainly along the outer Florida Straits...beyond 30 nm offshore of the Lower Keys...as well as on the nearshore Gulf waters surrounding the Dry Tortugas. The stronger showers over the Florida Straits will produce wind gusts near 30 knots...blinding downpours...and a rare lightning strike.

×

10-Day Weather Forecast

Almanac

Astronomy

Oct. 23, 2014 Rise Set
Actual Time 7:28 AM EDT 6:52 PM EDT
Civil Twilight 7:05 AM EDT 7:16 PM EDT
Nautical Twilight 6:38 AM EDT 7:42 PM EDT
Astronomical Twilight 6:11 AM EDT 8:09 PM EDT
Moon 7:09 AM EDT 6:53 PM EDT
Length of Visible Light 12h 10m
Length of Day
11h 24m
Tomorrow will be 1m 19s shorter.
Waning Crescent, 0% of the Moon is Illuminated
Today
Waning Crescent
Oct 23
New
Oct 30
First Quarter
Nov 6
Full
Nov 14
Last Quarter

Today's Extremes

State Highs State Lows

Community

WunderPhotos

Upload Photos

1,764,238 photos uploaded!

Nearby

Snow Depth

Station Depth Elevation
No new snow has been reported.

Earthquake Activity

City Distance Mag. Time & Date
No recent earthquake activity has been reported nearby.
Minimum magnitude displayed is 2.5.

Coastal Water Temperatures

Place Temperature
Key West, FL 81.0 °F
Vaca Key, FL 79.0 °F

Nearby Weather Stations